Snow/Ice From: 16-12-2017 16:00 Until: 17-12-2017 16:00 warning for: Snow/Ice Level: Yellow info button

Although rather usual in this region, locally or potentially dangerous phenomena are expected. (such as local winds, summer thunderstorms, rising streams or high waves) Be aware and pay attention to the latest weather updates, especially if you carry out activities exposed to weather or close to a stream or shoreline. 


Meteo18 Weather Cam more information Meteo18 Weather Cam


Thunder radar more information blitzortung!


warning for Snow/Ice more information rain snow radar


Visit our other weather sites:

Template documentation
and downloads

And another site



Weather Underground History page Text

Daily Summary for August 15, 2017 Units:  English    Metric   Both
« Previous Day
Next Day »
Daily Weekly Monthly Yearly Custom
  High: Low: Average:
Temperature: 76.8 °F 64.2 °F 69.1 °F
Dew Point: 66.6 °F 59.7 °F 63.1 °F
Humidity: 92 % 62 % 82 %
Wind Speed: 21 mph 0 mph 2.7 mph
Wind Gust: 28 mph - -
Wind:- - SW
Pressure: 30.2 in 30 in -
Precipitation: 0.16 in    
Historical Graphs
 
 
Tabular Data for August 15, 2017
Time Temperature Dew Point Pressure Wind Wind Speed Wind Gust Humidity Rainfall Rate (Hourly)
00:02 68.2 °F 59.9 °F 30 in Calm     75 % 0 in
00:07 68.4 °F 60.1 °F 30 in Calm     75 % 0 in
00:12 68.4 °F 60.1 °F 30 in Calm     75 % 0 in
00:17 68.4 °F 60.4 °F 30 in Calm     76 % 0 in
00:22 67.8 °F 60.3 °F 30 in Calm     77 % 0 in
00:32 67.8 °F 60.3 °F 30 in Calm     77 % 0 in
00:42 67.6 °F 60.3 °F 30 in Calm     77 % 0 in
00:52 67.5 °F 60.1 °F 30 in Calm     77 % 0 in
00:57 67.5 °F 60.1 °F 30 in Calm     77 % 0 in
01:02 67.3 °F 59.9 °F 30 in Calm     77 % 0 in
01:12 66.9 °F 59.9 °F 30 in Calm     78 % 0 in
01:17 66.9 °F 59.9 °F 30 in Calm     78 % 0 in
01:22 66.7 °F 60.1 °F 30 in Calm     79 % 0 in
01:32 66.7 °F 59.7 °F 30 in Calm     78 % 0 in
01:37 66.7 °F 59.7 °F 30 in Calm     78 % 0 in
01:42 66.6 °F 59.9 °F 30 in Calm     79 % 0 in
01:47 66.4 °F 60.1 °F 30 in Calm     80 % 0 in
01:52 66.2 °F 59.9 °F 30 in Calm     80 % 0 in
01:57 66.2 °F 59.9 °F 30 in Calm     80 % 0 in
02:02 66.2 °F 59.9 °F 30 in Calm     80 % 0 in
02:07 66.4 °F 60.1 °F 30 in Calm     80 % 0 in
02:12 66.2 °F 59.9 °F 30 in Calm     80 % 0 in
02:17 66 °F 60.1 °F 30 in Calm     81 % 0 in
02:22 66 °F 59.7 °F 30 in Calm     80 % 0 in
02:27 66.6 °F 60.3 °F 30 in Calm     80 % 0 in
02:32 66.6 °F 60.3 °F 30 in Calm     80 % 0 in
02:37 66.6 °F 59.9 °F 30 in Calm     79 % 0 in
02:42 66.6 °F 59.9 °F 30 in Calm     79 % 0 in
02:47 66.7 °F 60.1 °F 30 in Calm     79 % 0 in
02:52 66.7 °F 60.1 °F 30 in Calm     79 % 0 in
02:57 66.7 °F 60.4 °F 30 in Calm     80 % 0 in
03:02 66.7 °F 60.1 °F 30 in Calm     79 % 0 in
03:12 66.9 °F 60.3 °F 30 in Calm     79 % 0 in
03:17 66.7 °F 60.1 °F 30 in Calm     79 % 0 in
03:22 66.9 °F 60.3 °F 30 in Calm     79 % 0 in
03:32 68.2 °F 60.3 °F 30 in Calm     76 % 0 in
03:37 68.4 °F 60.4 °F 30 in SSW 2 mph   76 % 0 in
03:42 68 °F 60.4 °F 30 in SW 1 mph 4 mph 77 % 0 in
03:52 67.6 °F 60.6 °F 30 in Calm   3 mph 78 % 0 in
03:57 67.5 °F 60.8 °F 30 in Calm   3 mph 79 % 0 in
04:02 67.1 °F 60.8 °F 30 in SSE 1 mph 3 mph 80 % 0 in
04:07 66.9 °F 60.6 °F 30 in SSW 1 mph 3 mph 80 % 0 in
04:12 66.9 °F 60.6 °F 30 in Calm   3 mph 80 % 0 in
04:17 66.9 °F 60.6 °F 30 in Calm   3 mph 80 % 0 in
04:22 66.9 °F 60.6 °F 30 in Calm   3 mph 80 % 0 in
04:32 66.7 °F 60.8 °F 30 in Calm   2 mph 81 % 0 in
04:37 66.4 °F 60.8 °F 30 in Calm   2 mph 82 % 0 in
04:42 66.2 °F 60.6 °F 30 in Calm     82 % 0 in
04:47 66 °F 60.6 °F 30 in Calm     83 % 0 in
04:52 66 °F 60.6 °F 30 in Calm     83 % 0 in
04:57 66 °F 60.6 °F 30 in Calm     83 % 0 in
05:02 66 °F 60.6 °F 30 in SSW 2 mph   83 % 0 in
05:17 65.7 °F 61 °F 30 in SW 1 mph 4 mph 85 % 0 in
05:22 65.7 °F 61.3 °F 30 in SW 4 mph 4 mph 86 % 0 in
05:32 66 °F 61.7 °F 30 in SW 2 mph 10 mph 86 % 0.07 in
05:37 65.8 °F 61.9 °F 30 in SSW 2 mph 10 mph 87 % 0.1 in
05:42 65.5 °F 61.9 °F 30 in SSW 1 mph 10 mph 88 % 0.1 in
05:47 65.1 °F 61.9 °F 30 in South 1 mph 5 mph 89 % 0.1 in
05:52 65.1 °F 61.9 °F 30 in Calm   3 mph 89 % 0.1 in
06:02 64.9 °F 61.9 °F 30 in Calm   3 mph 90 % 0.1 in
06:12 65.1 °F 61.9 °F 30 in SSW 1 mph 2 mph 89 % 0.1 in
06:17 64.9 °F 61.7 °F 30 in SW 3 mph 3 mph 89 % 0.1 in
06:22 65.1 °F 62.1 °F 30 in SW 2 mph 3 mph 90 % 0.1 in
06:27 64.9 °F 61.9 °F 30 in Calm   3 mph 90 % 0.1 in
06:32 64.9 °F 61.9 °F 30 in Calm   4 mph 90 % 0 in
06:42 64.9 °F 61.9 °F 30 in Calm   3 mph 90 % 0 in
06:47 64.6 °F 61.9 °F 30 in Calm   3 mph 91 % 0 in
06:52 64.6 °F 61.9 °F 30 in Calm   3 mph 91 % 0 in
06:57 64.6 °F 61.9 °F 30 in Calm   3 mph 91 % 0 in
07:02 64.6 °F 61.9 °F 30 in Calm   1 mph 91 % 0 in
07:07 64.6 °F 61.5 °F 30 in Calm   1 mph 90 % 0 in
07:12 64.6 °F 61.5 °F 30 in Calm   1 mph 90 % 0 in
07:17 64.6 °F 61.5 °F 30 in Calm   1 mph 90 % 0 in
07:27 64.8 °F 61.7 °F 30 in Calm   1 mph 90 % 0 in
07:32 64.9 °F 61.9 °F 30 in Calm     90 % 0 in
07:37 64.8 °F 61.7 °F 30 in Calm     90 % 0 in
07:42 64.8 °F 62.1 °F 30 in Calm     91 % 0 in
07:47 64.4 °F 61.7 °F 30 in Calm   1 mph 91 % 0 in
07:57 64.2 °F 61.5 °F 30 in WSW 1 mph 1 mph 91 % 0 in
08:02 64.4 °F 61.7 °F 30 in SSW 1 mph 1 mph 91 % 0 in
08:07 64.8 °F 62.1 °F 30 in Calm   2 mph 91 % 0 in
08:12 64.9 °F 61.9 °F 30 in Calm   2 mph 90 % 0 in
08:17 65.1 °F 62.1 °F 30 in SSW 1 mph 3 mph 90 % 0 in
08:22 65.5 °F 62.4 °F 30 in SW 1 mph 3 mph 90 % 0 in
08:32 66 °F 62.4 °F 30 in SW 4 mph 4 mph 88 % 0 in
08:37 66.4 °F 62.4 °F 30 in SSW 3 mph 5 mph 87 % 0 in
08:42 66.4 °F 62.4 °F 30 in SW 5 mph 6 mph 87 % 0 in
08:52 66.6 °F 63 °F 30 in SSW 3 mph 6 mph 88 % 0 in
08:57 66.7 °F 62.8 °F 30 in SSW 3 mph 6 mph 87 % 0 in
09:07 67.8 °F 63.5 °F 30.1 in SW 4 mph 6 mph 86 % 0 in
09:17 69.4 °F 64.8 °F 30 in SW 3 mph 7 mph 85 % 0 in
09:22 70.5 °F 64.4 °F 30 in SSW 8 mph 8 mph 81 % 0 in
09:27 71.4 °F 64.2 °F 30 in SSW 7 mph 11 mph 78 % 0 in
09:32 71.8 °F 64.2 °F 30 in WSW 5 mph 12 mph 77 % 0 in
09:37 71.8 °F 64.2 °F 30 in SW 7 mph 12 mph 77 % 0 in
09:42 71.8 °F 64.2 °F 30.1 in SW 4 mph 11 mph 77 % 0 in
09:47 71.8 °F 63.5 °F 30 in SW 5 mph 10 mph 75 % 0 in
09:52 72 °F 63.7 °F 30 in WSW 9 mph 10 mph 75 % 0 in
10:02 72.7 °F 63.1 °F 30 in SW 7 mph 16 mph 72 % 0 in
10:12 72.7 °F 62.8 °F 30.1 in WSW 4 mph 17 mph 71 % 0 in
10:17 72.7 °F 62.8 °F 30.1 in West 5 mph 17 mph 71 % 0 in
10:22 72.7 °F 63.1 °F 30.1 in SSW 3 mph 15 mph 72 % 0 in
10:32 73 °F 63.5 °F 30.1 in SW 5 mph 11 mph 72 % 0 in
10:37 73.2 °F 63.7 °F 30.1 in SW 6 mph 11 mph 72 % 0.01 in
10:42 73.4 °F 63.9 °F 30.1 in SSW 5 mph 12 mph 72 % 0.01 in
10:47 73.8 °F 63 °F 30.1 in West 6 mph 15 mph 69 % 0.01 in
10:52 74.3 °F 63.5 °F 30.1 in SW 6 mph 15 mph 69 % 0.01 in
10:57 74.8 °F 64 °F 30.1 in WSW 8 mph 15 mph 69 % 0.01 in
11:02 75 °F 64.2 °F 30.1 in West 3 mph 13 mph 69 % 0.01 in
11:12 75.6 °F 63.3 °F 30.1 in SSW 5 mph 12 mph 66 % 0.01 in
11:17 75.9 °F 64.6 °F 30.1 in West 1 mph 11 mph 68 % 0.01 in
11:22 76.3 °F 63.7 °F 30.1 in SW 8 mph 11 mph 65 % 0.01 in
11:32 76.8 °F 62.8 °F 30.1 in WSW 8 mph 14 mph 62 % 0 in
11:42 76.6 °F 62.6 °F 30.1 in West 5 mph 15 mph 62 % 0 in
11:47 76.5 °F 63.3 °F 30.1 in SW 6 mph 13 mph 64 % 0 in
11:52 76.5 °F 63 °F 30.1 in WSW 7 mph 11 mph 63 % 0 in
11:57 76.1 °F 62.6 °F 30.1 in WSW 10 mph 11 mph 63 % 0 in
12:02 75.7 °F 62.2 °F 30.1 in West 6 mph 10 mph 63 % 0 in
12:07 75.4 °F 61.9 °F 30.1 in SW 7 mph 15 mph 63 % 0 in
12:12 75.2 °F 62.2 °F 30.1 in West 15 mph 15 mph 64 % 0 in
12:17 74.8 °F 61.3 °F 30.1 in WSW 10 mph 21 mph 63 % 0 in
12:22 74.5 °F 61 °F 30.1 in West 13 mph 23 mph 63 % 0 in
12:27 73.8 °F 60.4 °F 30.1 in WNW 12 mph 23 mph 63 % 0 in
12:32 72.9 °F 59.9 °F 30.1 in West 21 mph 23 mph 64 % 0 in
12:42 69.4 °F 61.2 °F 30.1 in West 7 mph 28 mph 75 % 0 in
12:47 68.2 °F 61.3 °F 30.1 in West 3 mph 28 mph 79 % 0 in
12:52 67.5 °F 61.2 °F 30.1 in WNW 7 mph 22 mph 80 % 0.02 in
12:57 67.1 °F 61.2 °F 30.1 in WSW 4 mph 22 mph 81 % 0.02 in
13:02 66.6 °F 61 °F 30.1 in SSW 1 mph 9 mph 82 % 0.02 in
13:12 66 °F 61.7 °F 30.1 in Calm   7 mph 86 % 0.03 in
13:17 65.8 °F 61.9 °F 30.1 in SSE 1 mph 7 mph 87 % 0.04 in
13:22 65.7 °F 62.1 °F 30.1 in Calm   7 mph 88 % 0.04 in
13:32 65.5 °F 61.9 °F 30.1 in West 2 mph 2 mph 88 % 0.05 in
13:42 65.8 °F 62.8 °F 30.1 in SE 2 mph 5 mph 90 % 0.05 in
13:52 66.6 °F 63.9 °F 30.1 in Calm   4 mph 91 % 0.02 in
13:57 66.9 °F 64.2 °F 30.1 in Calm   4 mph 91 % 0.02 in
14:02 66.9 °F 63.5 °F 30.1 in SSW 1 mph 3 mph 89 % 0.02 in
14:07 66.9 °F 63.3 °F 30.1 in West 1 mph 3 mph 88 % 0.02 in
14:12 67.3 °F 63.9 °F 30.1 in Calm   3 mph 89 % 0.01 in
14:17 67.5 °F 63.9 °F 30.1 in Calm   3 mph 88 % 0.01 in
14:22 67.6 °F 64 °F 30.1 in Calm   3 mph 88 % 0.01 in
14:27 67.8 °F 64.2 °F 30.1 in SW 1 mph 3 mph 88 % 0 in
14:32 68.2 °F 64.4 °F 30.1 in SSW 1 mph 4 mph 88 % 0 in
14:42 68.5 °F 64.2 °F 30.1 in SW 3 mph 6 mph 86 % 0 in
14:47 68.5 °F 63.9 °F 30.1 in WSW 5 mph 7 mph 85 % 0 in
14:52 68.5 °F 64.2 °F 30.1 in West 5 mph 8 mph 86 % 0 in
14:57 68.5 °F 64.6 °F 30.1 in SW 8 mph 12 mph 87 % 0 in
15:02 68.5 °F 64.2 °F 30.1 in WSW 6 mph 12 mph 86 % 0 in
15:07 68.5 °F 64.6 °F 30.1 in West 2 mph 12 mph 87 % 0 in
15:12 68.7 °F 64.8 °F 30.1 in WSW 6 mph 12 mph 87 % 0 in
15:17 68.7 °F 64.8 °F 30.1 in SW 3 mph 12 mph 87 % 0 in
15:22 69.1 °F 65.1 °F 30.1 in SW 10 mph 12 mph 87 % 0 in
15:27 69.3 °F 65.3 °F 30.1 in WSW 3 mph 11 mph 87 % 0 in
15:32 69.3 °F 65.3 °F 30.1 in WSW 3 mph 10 mph 87 % 0 in
15:37 69.4 °F 65.1 °F 30.1 in WSW 7 mph 10 mph 86 % 0 in
15:42 69.6 °F 65.3 °F 30.1 in West 5 mph 9 mph 86 % 0 in
15:47 70.2 °F 65.5 °F 30.1 in SSW 5 mph 9 mph 85 % 0 in
15:52 70.5 °F 65.8 °F 30.1 in WSW 2 mph 10 mph 85 % 0 in
15:57 71.2 °F 66.6 °F 30.1 in SW 9 mph 12 mph 85 % 0 in
16:02 71.6 °F 66.6 °F 30.1 in West 5 mph 12 mph 84 % 0 in
16:12 72.1 °F 65.3 °F 30.1 in SW 7 mph 13 mph 79 % 0 in
16:17 72.3 °F 65.8 °F 30.1 in WSW 4 mph 13 mph 80 % 0 in
16:22 72.3 °F 65.8 °F 30.1 in WSW 7 mph 13 mph 80 % 0 in
16:27 72.3 °F 65.5 °F 30.1 in SSW 5 mph 12 mph 79 % 0 in
16:32 72.3 °F 65.1 °F 30.1 in SSW 4 mph 12 mph 78 % 0 in
16:42 72.3 °F 64.4 °F 30.1 in SW 7 mph 12 mph 76 % 0 in
16:47 72.5 °F 64.6 °F 30.1 in SW 5 mph 12 mph 76 % 0 in
16:52 72.5 °F 64.9 °F 30.1 in South 5 mph 12 mph 77 % 0 in
16:57 72.7 °F 65.1 °F 30.1 in SSW 11 mph 11 mph 77 % 0 in
17:02 72.7 °F 64.8 °F 30.1 in SW 5 mph 11 mph 76 % 0 in
17:12 72.5 °F 64.9 °F 30.1 in WSW 8 mph 12 mph 77 % 0 in
17:17 72.3 °F 64.4 °F 30.1 in SW 8 mph 12 mph 76 % 0 in
17:22 72.3 °F 64.8 °F 30.1 in SSW 4 mph 12 mph 77 % 0 in
17:27 72.3 °F 65.1 °F 30.1 in SSW 3 mph 12 mph 78 % 0 in
17:32 72.3 °F 65.1 °F 30.1 in SW 9 mph 12 mph 78 % 0 in
17:37 72.3 °F 65.1 °F 30.1 in WSW 8 mph 9 mph 78 % 0 in
17:42 72.1 °F 64.9 °F 30.1 in SW 4 mph 9 mph 78 % 0 in
17:47 72.1 °F 64.9 °F 30.1 in SSW 3 mph 9 mph 78 % 0 in
17:52 72 °F 65.1 °F 30.1 in WSW 3 mph 9 mph 79 % 0 in
17:57 72 °F 65.1 °F 30.1 in SW 4 mph 9 mph 79 % 0 in
18:02 72 °F 65.5 °F 30.1 in SSW 5 mph 9 mph 80 % 0 in
18:12 71.8 °F 65.3 °F 30.1 in SW 5 mph 8 mph 80 % 0 in
18:17 72 °F 65.8 °F 30.1 in WSW 3 mph 8 mph 81 % 0 in
18:22 72 °F 65.5 °F 30.1 in WSW 2 mph 8 mph 80 % 0 in
18:32 72 °F 65.5 °F 30.1 in SSW 2 mph 7 mph 80 % 0 in
18:42 71.8 °F 66 °F 30.1 in SW 7 mph 7 mph 82 % 0 in
18:52 71.4 °F 66 °F 30.1 in SW 3 mph 9 mph 83 % 0 in
19:02 71.4 °F 66 °F 30.1 in SSE 2 mph 8 mph 83 % 0 in
19:12 71.2 °F 65.8 °F 30.1 in SW 2 mph 5 mph 83 % 0 in
19:17 71.2 °F 65.8 °F 30.1 in SW 1 mph 5 mph 83 % 0 in
19:22 71.2 °F 65.5 °F 30.1 in SW 4 mph 5 mph 82 % 0 in
19:32 71.8 °F 65.7 °F 30.1 in SW 3 mph 5 mph 81 % 0 in
19:37 72.1 °F 66 °F 30.1 in SW 5 mph 7 mph 81 % 0 in
19:42 72.1 °F 66 °F 30.1 in SW 3 mph 7 mph 81 % 0 in
19:47 72.1 °F 66 °F 30.1 in SW 7 mph 7 mph 81 % 0 in
19:52 72.1 °F 65.7 °F 30.1 in SW 3 mph 10 mph 80 % 0 in
19:57 72 °F 65.5 °F 30.1 in South 3 mph 10 mph 80 % 0 in
20:02 71.8 °F 65.7 °F 30.1 in SW 1 mph 10 mph 81 % 0 in
20:12 71.4 °F 65.7 °F 30.1 in SW 3 mph 7 mph 82 % 0 in
20:17 71.4 °F 65.7 °F 30.1 in SW 5 mph 7 mph 82 % 0 in
20:27 71.2 °F 65.5 °F 30.1 in WSW 2 mph 7 mph 82 % 0 in
20:32 71.2 °F 65.5 °F 30.1 in Calm   7 mph 82 % 0 in
20:37 71.2 °F 65.5 °F 30.1 in SE 1 mph 7 mph 82 % 0 in
20:42 71.1 °F 65.3 °F 30.1 in WSW 2 mph 3 mph 82 % 0 in
20:47 71.1 °F 65.3 °F 30.1 in Calm   3 mph 82 % 0 in
20:57 70.7 °F 65.3 °F 30.1 in Calm   3 mph 83 % 0 in
21:02 70.5 °F 65.5 °F 30.1 in Calm   2 mph 84 % 0 in
21:07 70.2 °F 65.5 °F 30.1 in SE 1 mph 2 mph 85 % 0 in
21:12 70 °F 65.3 °F 30.1 in Calm   2 mph 85 % 0 in
21:17 69.6 °F 65.3 °F 30.1 in Calm   2 mph 86 % 0 in
21:22 69.4 °F 65.1 °F 30.1 in Calm   2 mph 86 % 0 in
21:27 69.3 °F 64.9 °F 30.1 in Calm   2 mph 86 % 0 in
21:32 68.9 °F 64.6 °F 30.1 in Calm   2 mph 86 % 0 in
21:37 68.7 °F 64.8 °F 30.1 in Calm   1 mph 87 % 0 in
21:47 68.4 °F 64.6 °F 30.1 in Calm   1 mph 88 % 0 in
21:52 68.2 °F 64.8 °F 30.1 in Calm   1 mph 89 % 0 in
21:57 68 °F 64.6 °F 30.1 in Calm   1 mph 89 % 0 in
22:02 67.8 °F 64.8 °F 30.1 in Calm     90 % 0 in
22:07 67.8 °F 64.8 °F 30.2 in Calm     90 % 0 in
22:12 67.8 °F 64.8 °F 30.2 in Calm     90 % 0 in
22:17 68 °F 64.9 °F 30.2 in Calm     90 % 0 in
22:22 68.2 °F 65.1 °F 30.2 in Calm     90 % 0 in
22:32 67.6 °F 64.6 °F 30.2 in Calm     90 % 0 in
22:37 67.5 °F 64.4 °F 30.2 in Calm     90 % 0 in
22:42 67.5 °F 64.8 °F 30.2 in Calm     91 % 0 in
22:52 67.6 °F 65.3 °F 30.2 in SW 2 mph 3 mph 92 % 0 in
22:57 68 °F 65.3 °F 30.2 in SSW 2 mph 3 mph 91 % 0 in
23:02 68.2 °F 65.5 °F 30.2 in SSW 3 mph 3 mph 91 % 0 in
23:12 68.2 °F 65.1 °F 30.2 in SW 3 mph 4 mph 90 % 0 in
23:17 68.4 °F 65.3 °F 30.2 in SW 2 mph 4 mph 90 % 0 in
23:22 68.4 °F 65.3 °F 30.2 in SW 3 mph 5 mph 90 % 0 in
23:32 68.4 °F 65.3 °F 30.2 in WSW 4 mph 6 mph 90 % 0 in
23:37 68.5 °F 65.5 °F 30.2 in SW 6 mph 6 mph 90 % 0 in
23:42 68.5 °F 65.5 °F 30.2 in SW 4 mph 7 mph 90 % 0 in
23:47 68.5 °F 65.5 °F 30.2 in WSW 4 mph 7 mph 90 % 0 in
23:57 68.5 °F 65.5 °F 30.2 in SW 5 mph 8 mph 90 % 0 in
Meteo18
Compliments of Weather Underground - 4 mb

Script developed by  Jim McMurry - jmcmurry@mwt.net Adapted for the template by  Wim van der Kuil - Leuven-Template.eu

You find our weather info also at:

European Weather Network

Weather Underground

Equipment we use:

Weather-station
Davis Vue

Weather-program
Meteohub

Weather-server
Raspberry PI 2 B+

Provider
1 and 1

Davis Vue

Meteohub

Raspberry PI 2 B+

1 and 1